Home > Products > Valid Products > TAF

000
FTUS43 KEAX 031120
TAFMKC
TAF
KMKC 031120Z 0312/0412 19008KT P6SM SCT120
     FM031600 19012G19KT P6SM SCT100
     FM040000 18008KT P6SM FEW100=



000
FTUS43 KEAX 031120
TAFMKC
TAF
KMKC 031120Z 0312/0412 19008KT P6SM SCT120
     FM031600 19012G19KT P6SM SCT100
     FM040000 18008KT P6SM FEW100=



000
FTUS43 KEAX 031120
TAFSTJ
TAF
KSTJ 031120Z 0312/0412 18007KT P6SM BKN120
     FM031700 19012G19KT P6SM SCT100
     FM040000 17005KT P6SM FEW100=



000
FTUS43 KEAX 031120
TAFMCI
TAF
KMCI 031120Z 0312/0412 19011KT P6SM SCT120
     FM031600 19013G20KT P6SM SCT100
     FM040000 17008KT P6SM FEW100=



000
FTUS43 KEAX 031120
TAFSTJ
TAF
KSTJ 031120Z 0312/0412 18007KT P6SM BKN120
     FM031700 19012G19KT P6SM SCT100
     FM040000 17005KT P6SM FEW100=



000
FTUS43 KEAX 031120
TAFMCI
TAF
KMCI 031120Z 0312/0412 19011KT P6SM SCT120
     FM031600 19013G20KT P6SM SCT100
     FM040000 17008KT P6SM FEW100=



000
FTUS43 KEAX 030520
TAFMKC
TAF
KMKC 030520Z 0306/0406 18008KT P6SM FEW150
     FM031700 19012G20KT P6SM SCT100
     FM040000 18007KT P6SM FEW100=



000
FTUS43 KEAX 030520
TAFSTJ
TAF
KSTJ 030520Z 0306/0406 17007KT P6SM FEW150
     FM031700 19010G20KT P6SM SCT100
     FM040000 17005KT P6SM FEW100=



000
FTUS43 KEAX 030520
TAFMCI
TAF
KMCI 030520Z 0306/0406 18009KT P6SM FEW150
     FM031700 19012G22KT P6SM SCT100
     FM040000 17007KT P6SM FEW100=



000
FTUS43 KEAX 030520
TAFSTJ
TAF
KSTJ 030520Z 0306/0406 17007KT P6SM FEW150
     FM031700 19010G20KT P6SM SCT100
     FM040000 17005KT P6SM FEW100=



000
FTUS43 KEAX 030520
TAFMKC
TAF
KMKC 030520Z 0306/0406 18008KT P6SM FEW150
     FM031700 19012G20KT P6SM SCT100
     FM040000 18007KT P6SM FEW100=



000
FTUS43 KEAX 030520
TAFMCI
TAF
KMCI 030520Z 0306/0406 18009KT P6SM FEW150
     FM031700 19012G22KT P6SM SCT100
     FM040000 17007KT P6SM FEW100=



000
FTUS43 KEAX 022320
TAFMCI
TAF
KMCI 022320Z 0300/0324 19011KT P6SM SKC
     FM031800 18013G22KT P6SM SCT100=



000
FTUS43 KEAX 022320
TAFSTJ
TAF
KSTJ 022320Z 0300/0324 18008KT P6SM SKC
     FM031800 18011G20KT P6SM SCT100=



000
FTUS43 KEAX 022320
TAFMCI
TAF
KMCI 022320Z 0300/0324 19011KT P6SM SKC
     FM031800 18013G22KT P6SM SCT100=



000
FTUS43 KEAX 022320
TAFSTJ
TAF
KSTJ 022320Z 0300/0324 18008KT P6SM SKC
     FM031800 18011G20KT P6SM SCT100=



000
FTUS43 KEAX 022320
TAFMKC
TAF
KMKC 022320Z 0300/0324 19009KT P6SM SKC
     FM031800 18012G22KT P6SM SCT100=



000
FTUS43 KEAX 022320
TAFMKC
TAF
KMKC 022320Z 0300/0324 19009KT P6SM SKC
     FM031800 18012G22KT P6SM SCT100=



000
FTUS43 KEAX 021720
TAFMKC
TAF
KMKC 021720Z 0218/0318 17010KT P6SM SCT050 BKN100
     FM030000 15008KT P6SM SCT120
     FM031700 18012G19KT P6SM SCT120=



000
FTUS43 KEAX 021720
TAFMCI
TAF
KMCI 021720Z 0218/0318 17012KT P6SM SCT050 BKN100
     FM030000 15009KT P6SM SCT120
     FM031700 18015G22KT P6SM SCT120=



000
FTUS43 KEAX 021720
TAFMKC
TAF
KMKC 021720Z 0218/0318 17010KT P6SM SCT050 BKN100
     FM030000 15008KT P6SM SCT120
     FM031700 18012G19KT P6SM SCT120=



000
FTUS43 KEAX 021720
TAFSTJ
TAF
KSTJ 021720Z 0218/0318 19012KT P6SM SCT050 BKN100
     FM030000 18007KT P6SM SCT120
     FM031700 18012G20KT P6SM SCT120=



000
FTUS43 KEAX 021720
TAFSTJ
TAF
KSTJ 021720Z 0218/0318 19012KT P6SM SCT050 BKN100
     FM030000 18007KT P6SM SCT120
     FM031700 18012G20KT P6SM SCT120=



000
FTUS43 KEAX 021720
TAFMCI
TAF
KMCI 021720Z 0218/0318 17012KT P6SM SCT050 BKN100
     FM030000 15009KT P6SM SCT120
     FM031700 18015G22KT P6SM SCT120=



000
FTUS43 KEAX 021551 AAB
TAFSTJ
TAF AMD
KSTJ 021551Z 0216/0312 16010KT P6SM -RA BKN090
     FM021800 19012KT P6SM SCT060
     FM030000 18007KT P6SM SCT120=



000
FTUS43 KEAX 021550 AAA
TAFMKC
TAF AMD
KMKC 021550Z 0216/0312 15008KT P6SM BKN090
      TEMPO 0216/0218 4SM -RA BR BKN050
     FM030000 18008KT P6SM SCT120=



000
FTUS43 KEAX 021548 AAA
TAFMCI
TAF AMD
KMCI 021548Z 0216/0312 15008KT 3SM -RA BR SCT050 BKN080
     FM021800 17012KT P6SM BKN100
     FM030000 18009KT P6SM SCT120=



000
FTUS43 KEAX 021338 AAA
TAFSTJ
TAF AMD
KSTJ 021338Z 0214/0312 16010KT 3SM -RA VCTS BKN090CB
      TEMPO 0214/0215 2SM -TSRA BKN060CB
     FM021700 19015G22KT P6SM SCT060
     FM030000 18007KT P6SM SCT120=



000
FTUS43 KEAX 021338 AAA
TAFSTJ
TAF AMD
KSTJ 021338Z 0214/0312 16010KT 3SM -RA VCTS BKN090CB
      TEMPO 0214/0215 2SM -TSRA BKN060CB
     FM021700 19015G22KT P6SM SCT060
     FM030000 18007KT P6SM SCT120=



000
FTUS43 KEAX 021120
TAFMCI
TAF
KMCI 021120Z 0212/0312 19011KT P6SM VCTS BKN090CB
     FM021600 19014G21KT P6SM SCT090
     FM030000 18009KT P6SM SCT120=



000
FTUS43 KEAX 021120
TAFMKC
TAF
KMKC 021120Z 0212/0312 19010KT P6SM SCT090
     FM021500 21013G20KT P6SM SCT090
     FM030000 18008KT P6SM SCT120=



000
FTUS43 KEAX 021120
TAFSTJ
TAF
KSTJ 021120Z 0212/0312 16010KT P6SM VCTS BKN090CB
      TEMPO 0212/0215 6SM -TSRA BKN060CB
     FM021700 19015G22KT P6SM SCT060
     FM030000 18007KT P6SM SCT120=



000
FTUS43 KEAX 021120
TAFMCI
TAF
KMCI 021120Z 0212/0312 19011KT P6SM VCTS BKN090CB
     FM021600 19014G21KT P6SM SCT090
     FM030000 18009KT P6SM SCT120=



000
FTUS43 KEAX 021120
TAFMKC
TAF
KMKC 021120Z 0212/0312 19010KT P6SM SCT090
     FM021500 21013G20KT P6SM SCT090
     FM030000 18008KT P6SM SCT120=



000
FTUS43 KEAX 021120
TAFSTJ
TAF
KSTJ 021120Z 0212/0312 16010KT P6SM VCTS BKN090CB
      TEMPO 0212/0215 6SM -TSRA BKN060CB
     FM021700 19015G22KT P6SM SCT060
     FM030000 18007KT P6SM SCT120=



000
FTUS43 KEAX 020520
TAFSTJ
TAF
KSTJ 020520Z 0206/0306 18007KT P6SM BKN250
     FM020730 19013KT P6SM VCTS BKN040CB
      TEMPO 0209/0213 6SM -TSRA BKN035CB
     FM021600 22012KT P6SM SCT040 BKN180
     FM030000 18008KT P6SM SCT120=



000
FTUS43 KEAX 020520
TAFMKC
TAF
KMKC 020520Z 0206/0306 18008KT P6SM BKN250
     FM020900 19010KT P6SM BKN040
     FM021500 21013KT P6SM SCT040 BKN180
     FM030000 18008KT P6SM SCT120=



000
FTUS43 KEAX 020520
TAFMCI
TAF
KMCI 020520Z 0206/0306 19009KT P6SM BKN250
     FM020900 19011KT P6SM VCTS BKN040CB
     FM021430 21014KT P6SM SCT040 BKN180
     FM030000 18009KT P6SM SCT120=



000
FTUS43 KEAX 020520
TAFMKC
TAF
KMKC 020520Z 0206/0306 18008KT P6SM BKN250
     FM020900 19010KT P6SM BKN040
     FM021500 21013KT P6SM SCT040 BKN180
     FM030000 18008KT P6SM SCT120=



000
FTUS43 KEAX 020520
TAFMCI
TAF
KMCI 020520Z 0206/0306 19009KT P6SM BKN250
     FM020900 19011KT P6SM VCTS BKN040CB
     FM021430 21014KT P6SM SCT040 BKN180
     FM030000 18009KT P6SM SCT120=



000
FTUS43 KEAX 020520
TAFSTJ
TAF
KSTJ 020520Z 0206/0306 18007KT P6SM BKN250
     FM020730 19013KT P6SM VCTS BKN040CB
      TEMPO 0209/0213 6SM -TSRA BKN035CB
     FM021600 22012KT P6SM SCT040 BKN180
     FM030000 18008KT P6SM SCT120=



000
FTUS43 KEAX 012330
TAFSTJ
TAF
KSTJ 012330Z 0200/0224 17010KT P6SM SCT250
     FM021000 22013KT P6SM VCTS BKN040CB
     FM021600 21012KT P6SM SCT040 BKN180=



000
FTUS43 KEAX 012330
TAFMCI
TAF
KMCI 012330Z 0200/0224 19008KT P6SM SCT250
     FM021100 22014KT P6SM SCT040 BKN180=



000
FTUS43 KEAX 012330
TAFMKC
TAF
KMKC 012330Z 0200/0224 19009KT P6SM SCT250
     FM021100 22011KT P6SM SCT040 BKN180=



000
FTUS43 KEAX 011724
TAFSTJ
TAF
KSTJ 011724Z 0118/0218 19012G20KT P6SM SCT250
     FM020000 17006KT P6SM SCT120
     FM021200 19009KT P6SM VCSH BKN100=



000
FTUS43 KEAX 011724
TAFMKC
TAF
KMKC 011724Z 0118/0218 19010KT P6SM FEW250=



000
FTUS43 KEAX 011724
TAFMCI
TAF
KMCI 011724Z 0118/0218 19012G20KT P6SM FEW250
     FM020000 18008KT P6SM SCT120=



000
FTUS43 KEAX 011724
TAFMKC
TAF
KMKC 011724Z 0118/0218 19010KT P6SM FEW250=



000
FTUS43 KEAX 011724
TAFSTJ
TAF
KSTJ 011724Z 0118/0218 19012G20KT P6SM SCT250
     FM020000 17006KT P6SM SCT120
     FM021200 19009KT P6SM VCSH BKN100=



000
FTUS43 KEAX 011724
TAFMCI
TAF
KMCI 011724Z 0118/0218 19012G20KT P6SM FEW250
     FM020000 18008KT P6SM SCT120=



000
FTUS43 KEAX 011120
TAFMCI
TAF
KMCI 011120Z 0112/0212 18013KT P6SM SKC=



000
FTUS43 KEAX 011120
TAFSTJ
TAF
KSTJ 011120Z 0112/0212 19012KT P6SM SKC=



000
FTUS43 KEAX 011120
TAFMKC
TAF
KMKC 011120Z 0112/0212 19012KT P6SM SKC=



000
FTUS43 KEAX 011120
TAFSTJ
TAF
KSTJ 011120Z 0112/0212 19012KT P6SM SKC=



000
FTUS43 KEAX 011120
TAFMCI
TAF
KMCI 011120Z 0112/0212 18013KT P6SM SKC=



000
FTUS43 KEAX 011120
TAFMKC
TAF
KMKC 011120Z 0112/0212 19012KT P6SM SKC=



000
FTUS43 KEAX 010520
TAFMKC
TAF
KMKC 010520Z 0106/0206 19008KT P6SM SKC
     FM011800 20010G20KT P6SM SKC
     FM020000 17008KT P6SM FEW040=



000
FTUS43 KEAX 010520
TAFSTJ
TAF
KSTJ 010520Z 0106/0206 18005KT P6SM SKC
      TEMPO 0110/0113 4SM BR
     FM011800 18010G18KT P6SM SKC
     FM020000 17005KT P6SM FEW040=



000
FTUS43 KEAX 010520
TAFSTJ
TAF
KSTJ 010520Z 0106/0206 18005KT P6SM SKC
      TEMPO 0110/0113 4SM BR
     FM011800 18010G18KT P6SM SKC
     FM020000 17005KT P6SM FEW040=



000
FTUS43 KEAX 010520
TAFMKC
TAF
KMKC 010520Z 0106/0206 19008KT P6SM SKC
     FM011800 20010G20KT P6SM SKC
     FM020000 17008KT P6SM FEW040=



000
FTUS43 KEAX 010520
TAFMCI
TAF
KMCI 010520Z 0106/0206 18010KT P6SM SKC
     FM011800 19012G22KT P6SM SKC
     FM020000 17008KT P6SM FEW040=



000
FTUS43 KEAX 010520
TAFMCI
TAF
KMCI 010520Z 0106/0206 18010KT P6SM SKC
     FM011800 19012G22KT P6SM SKC
     FM020000 17008KT P6SM FEW040=



000
FTUS43 KEAX 312320
TAFSTJ
TAF
KSTJ 312320Z 0100/0124 17007KT P6SM SKC
      TEMPO 0110/0113 4SM BR=



000
FTUS43 KEAX 312320
TAFMKC
TAF
KMKC 312320Z 0100/0124 19008KT P6SM SKC=



000
FTUS43 KEAX 312320
TAFMCI
TAF
KMCI 312320Z 0100/0124 19009KT P6SM SKC=



000
FTUS43 KEAX 311727
TAFMKC
TAF
KMKC 311727Z 3118/0118 20008KT P6SM FEW045
     FM010000 18007KT P6SM SKC=



000
FTUS43 KEAX 311727
TAFMCI
TAF
KMCI 311727Z 3118/0118 19008KT P6SM SCT040
     FM010000 18007KT P6SM SKC=



000
FTUS43 KEAX 311727
TAFSTJ
TAF
KSTJ 311727Z 3118/0118 18007KT P6SM SCT040
     FM011000 16004KT 4SM BR SKC
     FM011300 19008KT P6SM SKC=



000
FTUS43 KEAX 311345 AAA
TAFSTJ
TAF AMD
KSTJ 311345Z 3114/0112 16003KT 5SM BR SKC
     FM311500 17007KT P6SM FEW025
     FM311800 18011KT P6SM SCT050
     FM010000 16008KT P6SM SKC=



    US Dept of Commerce
    National Oceanic and Atmospheric Administration
    National Weather Service
    1325 East West Highway
    Silver Spring, MD 20910
    Page Author: NWS Internet Services Team
Disclaimer
Information Quality
Credits
Glossary
Privacy Policy
Freedom of Information Act (FOIA)
About Us
Career Opportunities